World Sea Fishing Forums banner

1 - 3 of 3 Posts

·
Registered
Joined
·
9 Posts
Discussion Starter #1
Monday looks like there may be a opertunity

Holyhead
Anglesey County, Wales, United Kingdom, LL65
Today Fri 12 Oct BST 1 hr3 hr
Hour Wind Avg. Gust Temp. Rain 1h Cloud Press.
14:00 SW 18 kt to 25 kt 14°C 2.1 mm 100 % 994 mb
15:00 SSW 14 kt to 23 kt 14°C 1.3 mm 100 % 994 mb
16:00 S 20 kt to 43 kt 15°C 0.7 mm 100 % 994 mb
17:00 SSW 34 kt to 54 kt 18°C 0.6 mm 100 % 995 mb
18:00 SSW 32 kt to 50 kt 17°C 0.4 mm 100 % 997 mb
19:00 SW 27 kt to 42 kt 17°C 0.2 mm 100 % 998 mb
20:00 SW 23 kt to 36 kt 16°C 0 mm 100 % 1000 mb
21:00 SSW 20 kt to 32 kt 16°C 0 mm 98 % 1001 mb
22:00 SSW 18 kt to 28 kt 15°C 0.4 mm 98 % 1001 mb
23:00 SSW 16 kt to 25 kt 15°C 1.6 mm 100 % 1001 mb
▲07:40 ▼18:30
Tomorrow Sat 13 Oct BST 1 hr3 hr
Hour Wind Avg. Gust Temp. Rain 3h Cloud Press.
01:00 SW 10 kt to 19 kt 15°C 10.6 mm 100 % 1001 mb
04:00 SSE 6 kt to 9 kt 14°C 29.8 mm 100 % 999 mb
07:00 SW 6 kt to 20 kt 16°C 10.1 mm 100 % 996 mb
10:00 W 4 kt to 8 kt 14°C 1.6 mm 99 % 998 mb
13:00 SSW 9 kt to 12 kt 14°C 1.3 mm 100 % 1000 mb
16:00 S 14 kt to 23 kt 14°C 1.6 mm 100 % 1000 mb
19:00 SSW 23 kt to 31 kt 14°C 0.4 mm 100 % 1000 mb
22:00 SW 17 kt to 22 kt 13°C 0.2 mm 100 % 1002 mb
▲07:42 ▼18:28
Sun 14 Oct BST 1 hr3 hr
Hour Wind Avg. Gust Temp. Rain 3h Cloud Press.
01:00 W 18 kt to 21 kt 11°C 0.1 mm 100 % 1006 mb
04:00 NW 14 kt to 16 kt 10°C 0 mm 100 % 1008 mb
07:00 NW 10 kt to 11 kt 10°C 0 mm 100 % 1010 mb
10:00 NW 9 kt to 10 kt 10°C 0 mm 50 % 1012 mb
13:00 NNW 6 kt to 6 kt 12°C 0 mm 28 % 1012 mb
16:00 NNW 4 kt to 4 kt 11°C 0 mm 63 % 1012 mb
19:00 N 3 kt to 4 kt 8°C 0 mm 97 % 1013 mb
22:00 ENE 3 kt to 4 kt 8°C 0 mm 100 % 1015 mb
▲07:44 ▼18:25
Mon 15 Oct BST
Hour Wind Avg. Gust Temp. Rain 3h Cloud Press.
01:00 NE 3 kt to 4 kt 8°C 0 mm 100 % 1016 mb
04:00 NNE 4 kt to 5 kt 8°C 0 mm 100 % 1016 mb
07:00 N 5 kt to 7 kt 9°C 0 mm 51 % 1017 mb
10:00 NNE 5 kt to 6 kt 11°C 0 mm 0 % 1018 mb
13:00 NNE 5 kt to 6 kt 13°C 0 mm 0 % 1019 mb
16:00 NE 5 kt to 5 kt 13°C 0 mm 0 % 1018 mb
19:00 E 5 kt to 5 kt 9°C 0 mm 13 % 1020 mb
22:00 SE 9 kt to 10 kt 9°C 0 mm 72 % 1020 mb
 
1 - 3 of 3 Posts
Top